Time;durP1;ratioP1;P1;durP2;ratioP2;P2;SDS_P1;SDS_P2;PMS_P1;PMS_P2;Temp;Humidity;BMP_temperature;BMP_pressure;BME280_temperature;BME280_humidity;BME280_pressure;Samples;Min_cycle;Max_cycle;Signal;HPM_P1;HPM_P2
2021/08/23 00:00:39;;;;;;;0.10;0.10;;;16.60;99.90;;;;;;5111173;28;20194;-73
2021/08/23 00:03:05;;;;;;;0.10;0.10;;;16.60;99.90;;;;;;5110929;28;20171;-73
2021/08/23 00:05:32;;;;;;;0.08;0.08;;;16.70;99.90;;;;;;5111100;28;20182;-72
2021/08/23 00:07:58;;;;;;;0.10;0.10;;;16.80;99.90;;;;;;5092573;28;20191;-72
2021/08/23 00:10:25;;;;;;;0.00;0.00;;;16.80;99.90;;;;;;5110877;28;20316;-71
2021/08/23 00:12:51;;;;;;;0.00;0.00;;;16.80;99.90;;;;;;5110906;28;20155;-71
2021/08/23 00:15:17;;;;;;;0.00;0.00;;;16.80;99.90;;;;;;5092739;28;20171;-71
2021/08/23 00:17:44;;;;;;;0.57;0.57;;;16.80;99.90;;;;;;5110671;28;20197;-71
2021/08/23 00:20:13;;;;;;;0.00;0.00;;;16.70;99.90;;;;;;5092436;28;20628;-71
2021/08/23 00:22:47;;;;;;;0.10;0.10;;;16.60;99.90;;;;;;5110837;28;20208;-72
2021/08/23 00:25:17;;;;;;;0.10;0.10;;;16.50;99.90;;;;;;5110735;28;20714;-71
2021/08/23 00:27:43;;;;;;;0.10;0.10;;;16.60;99.90;;;;;;5110658;28;20190;-72
2021/08/23 00:30:14;;;;;;;0.20;0.20;;;16.60;99.90;;;;;;5110574;28;20163;-71
2021/08/23 00:32:42;;;;;;;0.00;0.00;;;16.50;99.90;;;;;;5092188;28;20163;-71
2021/08/23 00:35:09;;;;;;;0.00;0.00;;;16.50;99.90;;;;;;5110258;28;20159;-71
2021/08/23 00:37:38;;;;;;;0.00;0.00;;;16.60;99.90;;;;;;5091041;28;20195;-71
2021/08/23 00:40:05;;;;;;;0.10;0.10;;;16.60;99.90;;;;;;5110521;28;20163;-71
2021/08/23 00:42:31;;;;;;;0.00;0.00;;;16.70;99.90;;;;;;5110584;28;20172;-71
2021/08/23 00:44:57;;;;;;;0.00;0.00;;;16.50;99.90;;;;;;5110271;28;20170;-71
2021/08/23 00:47:23;;;;;;;0.55;0.55;;;16.40;99.90;;;;;;5110094;28;20270;-71
2021/08/23 00:49:49;;;;;;;0.80;0.55;;;16.40;99.90;;;;;;5110055;28;20219;-71
2021/08/23 00:52:15;;;;;;;0.00;0.00;;;16.50;99.90;;;;;;5110331;28;20197;-71
2021/08/23 00:54:41;;;;;;;0.05;0.05;;;16.50;99.90;;;;;;5110263;28;20164;-71
2021/08/23 00:57:07;;;;;;;0.00;0.00;;;16.60;99.90;;;;;;5110171;28;20163;-71
2021/08/23 00:59:39;;;;;;;0.13;0.13;;;16.70;99.90;;;;;;5110117;28;20198;-71
2021/08/23 01:02:32;;;;;;;0.00;0.00;;;16.80;99.90;;;;;;5109890;28;20155;-71
2021/08/23 01:04:58;;;;;;;0.05;0.05;;;16.80;99.90;;;;;;5091567;28;20167;-71
2021/08/23 01:07:29;;;;;;;0.00;0.00;;;16.80;99.90;;;;;;5109994;28;20266;-71
2021/08/23 01:10:14;;;;;;;0.00;0.00;;;16.70;99.90;;;;;;5109984;28;20156;-71
2021/08/23 01:12:41;;;;;;;0.00;0.00;;;16.60;99.90;;;;;;5109946;28;20159;-71
2021/08/23 01:15:07;;;;;;;0.00;0.00;;;16.60;99.90;;;;;;5091807;28;20187;-71
2021/08/23 01:17:34;;;;;;;0.00;0.00;;;16.70;99.90;;;;;;5109766;28;20575;-72
2021/08/23 01:20:04;;;;;;;1.05;0.70;;;16.70;99.90;;;;;;5109783;28;20247;-72
2021/08/23 01:22:37;;;;;;;0.00;0.00;;;16.70;99.90;;;;;;5109769;28;20179;-72
2021/08/23 01:25:05;;;;;;;0.10;0.10;;;16.80;99.90;;;;;;5109673;28;20191;-72
2021/08/23 01:27:34;;;;;;;0.00;0.00;;;16.80;99.90;;;;;;5109583;28;20194;-72
2021/08/23 01:30:09;;;;;;;0.00;0.00;;;16.80;99.90;;;;;;5109581;28;20155;-72
2021/08/23 01:32:35;;;;;;;0.00;0.00;;;16.70;99.90;;;;;;5109611;28;20151;-73
2021/08/23 01:35:03;;;;;;;0.00;0.00;;;16.70;99.90;;;;;;5109422;28;20183;-73
2021/08/23 01:37:31;;;;;;;0.08;0.08;;;16.70;99.90;;;;;;5109433;28;20191;-73
2021/08/23 01:39:58;;;;;;;0.00;0.00;;;16.80;99.90;;;;;;5109500;28;20159;-73
2021/08/23 01:42:24;;;;;;;0.20;0.20;;;16.90;99.90;;;;;;5091159;28;20171;-73
2021/08/23 01:44:49;;;;;;;0.00;0.00;;;16.90;99.90;;;;;;5109200;28;20155;-73
2021/08/23 01:47:15;;;;;;;0.30;0.20;;;16.90;99.90;;;;;;5108953;28;20218;-73
2021/08/23 01:49:42;;;;;;;0.00;0.00;;;16.90;99.90;;;;;;5090879;28;20332;-73
2021/08/23 01:52:09;;;;;;;0.00;0.00;;;16.80;99.90;;;;;;5109235;28;20234;-73
2021/08/23 01:54:35;;;;;;;0.17;0.17;;;16.80;99.90;;;;;;5109230;28;20159;-73
2021/08/23 01:57:01;;;;;;;0.00;0.00;;;16.60;99.90;;;;;;5109076;28;20219;-73
2021/08/23 01:59:27;;;;;;;0.10;0.10;;;16.70;99.90;;;;;;5109222;28;20253;-73
2021/08/23 02:01:53;;;;;;;0.20;0.20;;;16.70;99.90;;;;;;5109060;28;20163;-73
2021/08/23 02:04:19;;;;;;;0.00;0.00;;;16.80;99.90;;;;;;5108891;28;20214;-73
2021/08/23 02:06:45;;;;;;;0.13;0.13;;;16.80;99.90;;;;;;5108929;28;20199;-73
2021/08/23 02:09:11;;;;;;;0.00;0.00;;;16.80;99.90;;;;;;5090522;28;20241;-73
2021/08/23 02:11:37;;;;;;;0.00;0.00;;;16.80;99.90;;;;;;5108983;28;20160;-73
2021/08/23 02:14:03;;;;;;;0.00;0.00;;;16.70;99.90;;;;;;5108826;28;20187;-72
2021/08/23 02:16:29;;;;;;;0.10;0.10;;;16.60;99.90;;;;;;5090377;28;20163;-72
2021/08/23 02:18:55;;;;;;;0.00;0.00;;;16.60;99.90;;;;;;5108654;28;20217;-73
2021/08/23 02:21:21;;;;;;;0.05;0.05;;;16.60;99.90;;;;;;5108833;28;20155;-72
2021/08/23 02:23:53;;;;;;;0.20;0.20;;;16.80;99.90;;;;;;5108703;28;20239;-72
2021/08/23 02:26:20;;;;;;;5.38;0.88;;;16.80;99.90;;;;;;5090305;28;20199;-72
2021/08/23 02:28:46;;;;;;;0.10;0.10;;;16.70;99.90;;;;;;5090256;28;20197;-73
2021/08/23 02:31:11;;;;;;;0.00;0.00;;;16.50;99.90;;;;;;5108596;28;20152;-72
2021/08/23 02:33:38;;;;;;;0.90;0.20;;;16.50;99.90;;;;;;5108486;28;20206;-72
2021/08/23 02:36:04;;;;;;;0.00;0.00;;;16.50;99.90;;;;;;5108635;28;20313;-73
2021/08/23 02:38:30;;;;;;;0.00;0.00;;;16.50;99.90;;;;;;5090263;28;20195;-73
2021/08/23 02:40:56;;;;;;;0.10;0.10;;;16.60;99.90;;;;;;5108236;28;20247;-73
2021/08/23 02:43:22;;;;;;;0.10;0.10;;;16.50;99.90;;;;;;5108437;28;20190;-73
2021/08/23 02:45:48;;;;;;;0.00;0.00;;;16.60;99.90;;;;;;5090414;28;20214;-73
2021/08/23 02:48:13;;;;;;;0.00;0.00;;;16.70;99.90;;;;;;5108415;28;20191;-74
2021/08/23 02:50:39;;;;;;;0.00;0.00;;;16.70;99.90;;;;;;5123295;28;20210;-72
2021/08/23 02:53:05;;;;;;;0.35;0.13;;;16.80;99.90;;;;;;5128849;28;20159;-74
2021/08/23 02:55:31;;;;;;;0.00;0.00;;;16.80;99.90;;;;;;5110272;28;20171;-75
2021/08/23 02:57:57;;;;;;;0.00;0.00;;;16.80;99.90;;;;;;5110050;28;20290;-75
2021/08/23 03:00:23;;;;;;;0.10;0.10;;;16.80;99.90;;;;;;5131165;28;20370;-73
2021/08/23 03:02:49;;;;;;;0.20;0.20;;;16.80;99.90;;;;;;5114386;28;20170;-75
2021/08/23 03:05:15;;;;;;;0.00;0.00;;;16.90;99.90;;;;;;5132793;28;20598;-72
2021/08/23 03:07:41;;;;;;;0.10;0.10;;;16.90;99.90;;;;;;5132567;28;20200;-73
2021/08/23 03:10:07;;;;;;;0.00;0.00;;;16.90;99.90;;;;;;5114166;28;20208;-74
2021/08/23 03:12:33;;;;;;;0.22;0.15;;;16.80;99.90;;;;;;5132687;28;20159;-74
2021/08/23 03:14:59;;;;;;;0.15;0.15;;;16.90;99.90;;;;;;5114117;28;20162;-73
2021/08/23 03:17:25;;;;;;;0.10;0.10;;;16.80;99.90;;;;;;5132453;28;20214;-73
2021/08/23 03:19:51;;;;;;;0.00;0.00;;;16.90;99.90;;;;;;5132418;28;20169;-74
2021/08/23 03:22:17;;;;;;;0.20;0.20;;;16.90;99.90;;;;;;5132523;28;20178;-73
2021/08/23 03:24:43;;;;;;;0.63;0.63;;;16.90;99.90;;;;;;5113860;28;20239;-73
2021/08/23 03:27:09;;;;;;;0.00;0.00;;;16.80;99.90;;;;;;5113690;28;20198;-74
2021/08/23 03:29:35;;;;;;;1.55;0.40;;;16.80;99.90;;;;;;5132266;28;20161;-74
2021/08/23 03:32:00;;;;;;;0.43;0.43;;;16.80;99.90;;;;;;5132307;28;20162;-74
2021/08/23 03:34:26;;;;;;;0.28;0.28;;;16.80;99.90;;;;;;5132458;28;20155;-74
2021/08/23 03:36:52;;;;;;;0.00;0.00;;;16.80;99.90;;;;;;5113929;28;20193;-73
2021/08/23 03:39:18;;;;;;;0.10;0.10;;;16.80;99.90;;;;;;5132005;28;20258;-74
2021/08/23 03:41:44;;;;;;;0.00;0.00;;;16.70;99.90;;;;;;5132162;28;20245;-73
2021/08/23 03:44:10;;;;;;;0.85;0.85;;;16.70;99.90;;;;;;5131975;28;20166;-74
2021/08/23 03:46:36;;;;;;;2.92;0.85;;;16.70;99.90;;;;;;5113413;28;20190;-74
2021/08/23 03:49:04;;;;;;;0.08;0.08;;;16.70;99.90;;;;;;5130360;28;20206;-75
2021/08/23 03:51:31;;;;;;;0.00;0.00;;;16.60;99.90;;;;;;5111733;28;20163;-73
2021/08/23 03:53:57;;;;;;;0.00;0.00;;;16.60;99.90;;;;;;5093177;28;20186;-73
2021/08/23 03:56:23;;;;;;;0.00;0.00;;;16.50;99.90;;;;;;5111435;28;20160;-73
2021/08/23 03:58:50;;;;;;;0.35;0.35;;;16.40;99.90;;;;;;5093077;28;20686;-73
2021/08/23 04:01:17;;;;;;;0.00;0.00;;;16.30;99.90;;;;;;5111238;28;20148;-75
2021/08/23 04:03:42;;;;;;;0.00;0.00;;;16.30;99.90;;;;;;5092952;28;20198;-73
2021/08/23 04:06:12;;;;;;;0.00;0.00;;;16.40;99.90;;;;;;5111213;28;20197;-73
2021/08/23 04:08:41;;;;;;;0.38;0.38;;;16.50;99.90;;;;;;5092693;28;20205;-73
2021/08/23 04:11:10;;;;;;;1.15;0.28;;;16.50;99.90;;;;;;5092619;28;20258;-74
2021/08/23 04:13:36;;;;;;;0.03;0.03;;;16.60;99.90;;;;;;5110809;28;20160;-74
2021/08/23 04:16:03;;;;;;;0.20;0.20;;;16.60;99.90;;;;;;5092357;28;20224;-74
2021/08/23 04:18:29;;;;;;;0.10;0.10;;;16.60;99.90;;;;;;5110734;28;20187;-74
2021/08/23 04:20:54;;;;;;;0.73;0.73;;;16.60;99.90;;;;;;5110901;28;20171;-74
2021/08/23 04:23:20;;;;;;;0.05;0.05;;;16.60;99.90;;;;;;5092364;28;20171;-74
2021/08/23 04:25:46;;;;;;;0.63;0.63;;;16.60;99.90;;;;;;5110625;28;20191;-74
2021/08/23 04:28:12;;;;;;;0.10;0.10;;;16.60;99.90;;;;;;5110496;28;20191;-74
2021/08/23 04:30:38;;;;;;;0.20;0.20;;;16.60;99.90;;;;;;5110587;28;20181;-73
2021/08/23 04:33:04;;;;;;;0.10;0.10;;;16.60;99.90;;;;;;5110528;28;20167;-73
2021/08/23 04:35:30;;;;;;;0.60;0.60;;;16.60;99.90;;;;;;5110451;28;20164;-74
2021/08/23 04:37:56;;;;;;;0.63;0.63;;;16.50;99.90;;;;;;5110388;28;20197;-74
2021/08/23 04:40:22;;;;;;;0.20;0.20;;;16.40;99.90;;;;;;5110398;28;20175;-74
2021/08/23 04:42:48;;;;;;;0.00;0.00;;;16.50;99.90;;;;;;5110358;28;20167;-74
2021/08/23 04:45:14;;;;;;;0.10;0.10;;;16.60;99.90;;;;;;5110226;28;20648;-74
2021/08/23 04:47:40;;;;;;;0.32;0.30;;;16.60;99.90;;;;;;5091811;28;20187;-74
2021/08/23 04:50:06;;;;;;;0.10;0.10;;;16.40;99.90;;;;;;5120308;28;20244;-73
2021/08/23 04:52:31;;;;;;;0.10;0.10;;;16.40;99.90;;;;;;5130619;28;20147;-75
2021/08/23 04:55:01;;;;;;;0.10;0.10;;;16.50;99.90;;;;;;5130775;28;20158;-75
2021/08/23 04:57:26;;;;;;;0.22;0.22;;;16.40;99.90;;;;;;5130605;28;20196;-75
2021/08/23 04:59:52;;;;;;;0.45;0.45;;;16.30;99.90;;;;;;5130344;28;20159;-75
2021/08/23 05:02:18;;;;;;;1.55;1.45;;;16.20;99.90;;;;;;5130210;28;20158;-76
2021/08/23 05:04:44;;;;;;;0.10;0.10;;;16.30;99.90;;;;;;5130310;28;20151;-75
2021/08/23 05:07:10;;;;;;;0.35;0.30;;;16.20;99.90;;;;;;5130237;28;20191;-75
2021/08/23 05:09:36;;;;;;;0.47;0.47;;;16.30;99.90;;;;;;5130349;28;20159;-75
2021/08/23 05:12:02;;;;;;;0.32;0.32;;;16.20;99.90;;;;;;5130316;28;20170;-75
2021/08/23 05:14:28;;;;;;;0.10;0.10;;;16.30;99.90;;;;;;5103340;28;20175;-76
2021/08/23 05:16:54;;;;;;;0.10;0.10;;;16.30;99.90;;;;;;5109084;28;20198;-74
2021/08/23 05:19:20;;;;;;;0.20;0.20;;;16.50;99.90;;;;;;5109599;28;20171;-74
2021/08/23 05:21:46;;;;;;;0.10;0.10;;;16.50;99.90;;;;;;5109410;28;20168;-74
2021/08/23 05:24:12;;;;;;;2.05;1.23;;;16.60;99.90;;;;;;5091329;28;20227;-75
2021/08/23 05:26:38;;;;;;;0.00;0.00;;;16.60;99.90;;;;;;5091346;28;20203;-74
2021/08/23 05:29:04;;;;;;;0.00;0.00;;;16.60;99.90;;;;;;5109503;28;20188;-75
2021/08/23 05:31:30;;;;;;;0.85;0.85;;;16.70;99.90;;;;;;5091039;28;20262;-75
2021/08/23 05:33:55;;;;;;;0.15;0.15;;;16.70;99.90;;;;;;5091247;28;20691;-75
2021/08/23 05:36:23;;;;;;;0.55;0.55;;;16.60;99.90;;;;;;5091114;28;20234;-76
2021/08/23 05:38:49;;;;;;;0.00;0.00;;;16.70;99.90;;;;;;5109419;28;20206;-74
2021/08/23 05:41:15;;;;;;;0.10;0.10;;;16.80;99.90;;;;;;5109366;28;20151;-74
2021/08/23 05:43:41;;;;;;;0.25;0.25;;;16.70;99.90;;;;;;5091017;28;20175;-75
2021/08/23 05:46:07;;;;;;;0.00;0.00;;;16.80;99.90;;;;;;5090907;28;20255;-75
2021/08/23 05:48:33;;;;;;;0.10;0.10;;;16.70;99.90;;;;;;5090718;28;20191;-74
2021/08/23 05:50:59;;;;;;;0.10;0.10;;;16.70;99.90;;;;;;5092463;28;20229;-74
2021/08/23 05:53:24;;;;;;;0.00;0.00;;;16.60;99.90;;;;;;5106865;28;20285;-73
2021/08/23 05:55:50;;;;;;;0.15;0.15;;;16.50;99.90;;;;;;5108631;28;20183;-76
2021/08/23 05:58:16;;;;;;;0.20;0.20;;;16.70;99.90;;;;;;5108880;28;20218;-76
2021/08/23 06:00:42;;;;;;;0.00;0.00;;;16.70;99.90;;;;;;5109102;28;20183;-77
2021/08/23 06:03:08;;;;;;;0.70;0.50;;;16.80;99.90;;;;;;5108987;28;20209;-76
2021/08/23 06:05:36;;;;;;;1.55;0.47;;;16.80;99.90;;;;;;5108900;28;20194;-75
2021/08/23 06:08:06;;;;;;;0.00;0.00;;;16.80;99.90;;;;;;5108942;28;20191;-76
2021/08/23 06:10:33;;;;;;;0.93;0.30;;;16.90;99.90;;;;;;5108852;28;20176;-76
2021/08/23 06:12:59;;;;;;;0.47;0.25;;;17.00;99.90;;;;;;5090727;28;20255;-75
2021/08/23 06:15:25;;;;;;;0.15;0.15;;;17.00;99.90;;;;;;5108751;28;20166;-76
2021/08/23 06:17:51;;;;;;;0.17;0.17;;;17.00;99.90;;;;;;5108622;28;20287;-76
2021/08/23 06:20:17;;;;;;;0.13;0.13;;;17.00;99.90;;;;;;5108788;28;20160;-76
2021/08/23 06:22:46;;;;;;;2.33;0.82;;;17.10;99.90;;;;;;5090639;28;20596;-76
2021/08/23 06:25:12;;;;;;;0.43;0.43;;;17.00;99.90;;;;;;5090474;28;20214;-77
2021/08/23 06:27:38;;;;;;;0.22;0.22;;;17.10;99.90;;;;;;5108507;28;20663;-76
2021/08/23 06:30:05;;;;;;;10.10;5.28;;;17.10;99.90;;;;;;5090499;28;20167;-76
2021/08/23 06:32:31;;;;;;;0.57;0.57;;;17.10;99.90;;;;;;5090214;28;20171;-76
2021/08/23 06:34:57;;;;;;;0.43;0.43;;;17.00;99.90;;;;;;5107588;28;20281;-76
2021/08/23 06:37:23;;;;;;;0.65;0.65;;;16.90;99.90;;;;;;5108456;28;20191;-76
2021/08/23 06:39:49;;;;;;;0.82;0.82;;;16.90;99.90;;;;;;5108360;28;20159;-73
2021/08/23 06:42:15;;;;;;;0.52;0.25;;;16.90;99.90;;;;;;5090120;28;20261;-74
2021/08/23 06:44:41;;;;;;;0.30;0.30;;;17.00;99.90;;;;;;5108271;28;20160;-74
2021/08/23 06:47:07;;;;;;;0.00;0.00;;;17.20;99.90;;;;;;5108122;28;20199;-74
2021/08/23 06:49:33;;;;;;;0.65;0.65;;;17.40;99.90;;;;;;5107057;28;20215;-74
2021/08/23 06:51:58;;;;;;;0.82;0.82;;;17.60;99.90;;;;;;5114590;28;20221;-73
2021/08/23 06:54:24;;;;;;;0.52;0.52;;;17.60;99.90;;;;;;5099081;28;20243;-73
2021/08/23 06:56:50;;;;;;;0.70;0.63;;;17.60;99.90;;;;;;5128243;28;20165;-74
2021/08/23 06:59:16;;;;;;;0.20;0.20;;;17.60;99.90;;;;;;5109684;28;20220;-73
2021/08/23 07:01:42;;;;;;;0.52;0.52;;;17.50;99.90;;;;;;5128350;28;20155;-74
2021/08/23 07:04:11;;;;;;;0.10;0.10;;;17.50;99.90;;;;;;5128323;28;20194;-74
2021/08/23 07:06:37;;;;;;;0.30;0.30;;;17.50;99.90;;;;;;5128618;28;20201;-74
2021/08/23 07:09:03;;;;;;;0.28;0.28;;;17.60;99.90;;;;;;5109620;28;20163;-73
2021/08/23 07:11:29;;;;;;;0.88;0.85;;;17.40;99.90;;;;;;5126642;28;20205;-74
2021/08/23 07:13:55;;;;;;;3.03;1.08;;;17.50;99.90;;;;;;5109896;28;20171;-73
2021/08/23 07:16:21;;;;;;;0.65;0.65;;;17.60;99.90;;;;;;5128575;28;20162;-73
2021/08/23 07:18:47;;;;;;;0.47;0.25;;;18.00;99.90;;;;;;5109684;28;20175;-73
2021/08/23 07:21:13;;;;;;;0.40;0.40;;;18.10;99.90;;;;;;5128141;28;20190;-72
2021/08/23 07:23:39;;;;;;;0.35;0.35;;;18.20;99.90;;;;;;5124013;28;20257;-73
2021/08/23 07:26:05;;;;;;;0.52;0.52;;;18.10;99.90;;;;;;5109636;28;20186;-74
2021/08/23 07:28:31;;;;;;;0.20;0.20;;;18.10;99.90;;;;;;5109997;28;20163;-73
2021/08/23 07:30:56;;;;;;;0.30;0.30;;;18.10;99.90;;;;;;5123172;28;20199;-73
2021/08/23 07:33:22;;;;;;;0.13;0.13;;;18.80;99.90;;;;;;5110189;28;20162;-74
2021/08/23 07:35:48;;;;;;;0.40;0.40;;;18.70;99.90;;;;;;5128545;28;20729;-73
2021/08/23 07:38:14;;;;;;;0.20;0.20;;;18.60;99.90;;;;;;5128430;28;20170;-73
2021/08/23 07:40:40;;;;;;;0.50;0.50;;;18.30;99.90;;;;;;5109294;28;20194;-73
2021/08/23 07:43:06;;;;;;;0.10;0.10;;;18.20;99.90;;;;;;5119840;28;20182;-74
2021/08/23 07:45:34;;;;;;;1.27;1.00;;;18.20;99.90;;;;;;5113539;28;20218;-74
2021/08/23 07:48:00;;;;;;;1.00;0.63;;;18.30;99.90;;;;;;5122644;28;20158;-73
2021/08/23 07:50:26;;;;;;;0.10;0.10;;;18.40;99.90;;;;;;5122865;28;20277;-74
2021/08/23 07:52:52;;;;;;;0.25;0.25;;;18.30;99.90;;;;;;5115361;28;20239;-73
2021/08/23 07:55:18;;;;;;;0.35;0.35;;;18.40;99.90;;;;;;5122962;28;20202;-73
2021/08/23 07:57:50;;;;;;;0.10;0.10;;;18.60;99.90;;;;;;5106459;28;20183;-72
2021/08/23 08:00:18;;;;;;;0.10;0.10;;;18.70;99.90;;;;;;5116306;28;20198;-73
2021/08/23 08:02:45;;;;;;;0.00;0.00;;;18.80;99.90;;;;;;5125571;28;20171;-74
2021/08/23 08:05:14;;;;;;;0.28;0.28;;;19.30;99.90;;;;;;5091613;28;20242;-73
2021/08/23 08:07:41;;;;;;;1.30;0.65;;;19.50;99.90;;;;;;5092450;28;20198;-74
2021/08/23 08:10:10;;;;;;;0.40;0.40;;;19.40;99.90;;;;;;5111066;28;20227;-73
2021/08/23 08:12:36;;;;;;;0.10;0.10;;;19.10;99.90;;;;;;5117758;28;20163;-74
2021/08/23 08:15:03;;;;;;;0.38;0.38;;;18.60;99.90;;;;;;5093907;28;20287;-74
2021/08/23 08:17:29;;;;;;;0.20;0.20;;;18.70;99.90;;;;;;5124024;28;20813;-73
2021/08/23 08:19:55;;;;;;;0.50;0.50;;;18.90;99.90;;;;;;5110312;28;20179;-73
2021/08/23 08:22:21;;;;;;;0.77;0.77;;;18.90;99.90;;;;;;5091144;28;20175;-74
2021/08/23 08:24:47;;;;;;;0.82;0.50;;;18.90;99.90;;;;;;5092570;28;20201;-75
2021/08/23 08:27:13;;;;;;;0.70;0.45;;;18.70;99.90;;;;;;5124630;28;20731;-73
2021/08/23 08:29:40;;;;;;;1.73;0.22;;;18.80;99.90;;;;;;5125134;28;20167;-74
2021/08/23 08:32:07;;;;;;;0.10;0.10;;;19.00;99.90;;;;;;5113926;28;20190;-74
2021/08/23 08:34:34;;;;;;;0.45;0.45;;;18.90;99.90;;;;;;5100583;28;20168;-74
2021/08/23 08:37:02;;;;;;;0.85;0.85;;;18.90;99.90;;;;;;5113305;28;20195;-74
2021/08/23 08:39:28;;;;;;;0.10;0.10;;;18.20;99.90;;;;;;5090933;28;20252;-75
2021/08/23 08:41:53;;;;;;;0.63;0.40;;;18.30;99.90;;;;;;5092041;28;20171;-74
2021/08/23 08:44:19;;;;;;;0.10;0.10;;;18.10;99.90;;;;;;5109582;28;20174;-74
2021/08/23 08:46:46;;;;;;;0.43;0.43;;;18.10;99.90;;;;;;5099411;28;20678;-74
2021/08/23 08:49:13;;;;;;;0.20;0.20;;;18.20;99.90;;;;;;5094897;28;20171;-73
2021/08/23 08:51:41;;;;;;;0.10;0.10;;;18.20;99.90;;;;;;5088973;28;20171;-73
2021/08/23 08:54:07;;;;;;;0.03;0.03;;;18.00;99.90;;;;;;5068991;28;20186;-74
2021/08/23 08:56:34;;;;;;;0.17;0.17;;;18.00;99.90;;;;;;5087004;28;20237;-74
2021/08/23 08:59:01;;;;;;;0.10;0.10;;;18.10;99.90;;;;;;5070562;28;20172;-74
2021/08/23 09:01:27;;;;;;;0.52;0.52;;;18.10;99.90;;;;;;5089401;28;20195;-74
2021/08/23 09:04:00;;;;;;;1.45;1.00;;;18.30;99.90;;;;;;5088580;28;20195;-75
2021/08/23 09:06:26;;;;;;;0.30;0.30;;;18.40;99.90;;;;;;5070425;28;20218;-73
2021/08/23 09:08:52;;;;;;;0.75;0.75;;;18.50;99.90;;;;;;5089044;28;20247;-75
2021/08/23 09:11:19;;;;;;;0.20;0.20;;;18.40;99.90;;;;;;5089396;28;20174;-74
2021/08/23 09:14:04;;;;;;;0.93;0.85;;;18.40;99.90;;;;;;5079485;28;20263;-75
2021/08/23 09:16:32;;;;;;;0.13;0.13;;;18.30;99.90;;;;;;5084375;28;20205;-74
2021/08/23 09:18:58;;;;;;;0.10;0.10;;;18.20;99.90;;;;;;5091043;28;20204;-74
2021/08/23 09:21:30;;;;;;;0.03;0.03;;;18.20;99.90;;;;;;5077118;28;20204;-74
2021/08/23 09:24:00;;;;;;;0.10;0.10;;;18.30;99.90;;;;;;5088042;28;20187;-74
2021/08/23 09:26:31;;;;;;;0.05;0.05;;;18.50;99.90;;;;;;5088216;28;20351;-74
2021/08/23 09:29:03;;;;;;;0.00;0.00;;;18.40;99.90;;;;;;5072423;28;20190;-74
2021/08/23 09:31:36;;;;;;;0.38;0.30;;;18.10;99.90;;;;;;5088523;28;20202;-75
2021/08/23 09:34:04;;;;;;;0.35;0.35;;;18.00;99.90;;;;;;5089053;28;20160;-75
2021/08/23 09:36:31;;;;;;;4.85;1.00;;;17.80;99.90;;;;;;5087760;28;20172;-75
2021/08/23 09:39:04;;;;;;;0.57;0.57;;;18.00;99.90;;;;;;5070420;28;20234;-74
2021/08/23 09:41:31;;;;;;;0.05;0.05;;;18.40;99.90;;;;;;5076651;28;20695;-74
2021/08/23 09:44:03;;;;;;;0.38;0.38;;;18.50;99.90;;;;;;5070005;28;20184;-73
2021/08/23 09:46:32;;;;;;;0.10;0.10;;;18.70;99.90;;;;;;5069839;28;20192;-74
2021/08/23 09:49:03;;;;;;;0.15;0.15;;;18.50;99.90;;;;;;5080174;28;20191;-73
2021/08/23 09:51:32;;;;;;;0.08;0.08;;;18.70;99.90;;;;;;5107461;28;20175;-76
2021/08/23 09:54:19;;;;;;;0.05;0.05;;;18.70;99.90;;;;;;5108296;28;20661;-74
2021/08/23 09:56:53;;;;;;;0.10;0.10;;;18.70;99.90;;;;;;5107123;28;20163;-73
2021/08/23 09:59:21;;;;;;;1.27;1.17;;;18.70;99.90;;;;;;5090333;28;20173;-73
2021/08/23 10:01:49;;;;;;;0.10;0.10;;;18.80;99.90;;;;;;5108510;28;20171;-74
2021/08/23 10:04:17;;;;;;;0.28;0.28;;;18.90;99.90;;;;;;5108214;28;20258;-74
2021/08/23 10:06:45;;;;;;;14.70;0.52;;;19.10;99.90;;;;;;5106281;28;20195;-73
2021/08/23 10:09:19;;;;;;;0.03;0.03;;;19.40;99.90;;;;;;5089734;28;20551;-74
2021/08/23 10:11:45;;;;;;;0.28;0.28;;;19.30;99.90;;;;;;5098285;28;20171;-74
2021/08/23 10:14:11;;;;;;;0.10;0.10;;;19.40;99.90;;;;;;5108292;28;20156;-73
2021/08/23 10:16:37;;;;;;;0.20;0.20;;;19.40;99.90;;;;;;5107607;28;20174;-74
2021/08/23 10:19:05;;;;;;;0.30;0.30;;;19.00;99.90;;;;;;5090040;28;20239;-74
2021/08/23 10:21:32;;;;;;;0.10;0.10;;;19.20;99.90;;;;;;5108224;28;20239;-75
2021/08/23 10:23:59;;;;;;;0.15;0.15;;;19.00;99.90;;;;;;5089570;28;20235;-75
2021/08/23 10:26:26;;;;;;;0.38;0.38;;;19.20;99.90;;;;;;5090023;28;20283;-74
2021/08/23 10:28:52;;;;;;;0.38;0.38;;;19.50;99.90;;;;;;5107752;28;20360;-75
2021/08/23 10:31:21;;;;;;;0.45;0.45;;;19.70;99.90;;;;;;5108240;28;20199;-74
2021/08/23 10:33:48;;;;;;;0.20;0.20;;;19.30;99.90;;;;;;5089652;28;20296;-75
2021/08/23 10:36:17;;;;;;;0.40;0.40;;;19.20;99.90;;;;;;5108053;28;20179;-75
2021/08/23 10:38:47;;;;;;;0.10;0.10;;;19.00;99.90;;;;;;5107583;28;20187;-75
2021/08/23 10:41:25;;;;;;;0.10;0.10;;;18.80;99.90;;;;;;5090038;28;20184;-75
2021/08/23 10:43:52;;;;;;;0.10;0.10;;;18.70;99.90;;;;;;5107666;28;20158;-75
2021/08/23 10:46:37;;;;;;;0.80;0.55;;;18.70;99.90;;;;;;5089704;28;20255;-75
2021/08/23 10:49:12;;;;;;;0.08;0.08;;;18.90;99.90;;;;;;5099426;28;20156;-74
2021/08/23 10:51:44;;;;;;;0.10;0.10;;;19.00;99.90;;;;;;5107933;28;20200;-75
2021/08/23 10:54:27;;;;;;;0.13;0.05;;;19.00;99.90;;;;;;5107598;28;20312;-74
2021/08/23 10:56:59;;;;;;;0.10;0.10;;;19.00;99.90;;;;;;5089600;28;20244;-75
2021/08/23 10:59:37;;;;;;;0.10;0.10;;;19.00;99.90;;;;;;5089501;28;20183;-75
2021/08/23 11:02:03;;;;;;;0.00;0.00;;;19.20;99.90;;;;;;5089266;28;20201;-74
2021/08/23 11:04:31;;;;;;;0.10;0.10;;;19.20;99.90;;;;;;5108090;28;20178;-74
2021/08/23 11:07:02;;;;;;;0.68;0.40;;;19.20;99.90;;;;;;5091265;28;20259;-74
2021/08/23 11:09:39;;;;;;;0.10;0.10;;;19.10;99.90;;;;;;5107731;28;20167;-74
2021/08/23 11:12:10;;;;;;;0.20;0.20;;;19.10;99.90;;;;;;5108230;28;20155;-75
2021/08/23 11:14:51;;;;;;;0.20;0.20;;;19.10;99.90;;;;;;5108260;28;20176;-74
2021/08/23 11:17:31;;;;;;;0.00;0.00;;;19.30;99.90;;;;;;5108098;28;20187;-74
2021/08/23 11:20:03;;;;;;;0.10;0.10;;;19.40;99.90;;;;;;5089646;28;20174;-74
2021/08/23 11:22:30;;;;;;;0.30;0.30;;;19.40;99.90;;;;;;5112067;28;20218;-74
2021/08/23 11:24:56;;;;;;;0.20;0.20;;;19.40;99.90;;;;;;5093058;28;20704;-74
2021/08/23 11:27:22;;;;;;;0.32;0.32;;;19.40;99.90;;;;;;5111662;28;20203;-74
2021/08/23 11:29:54;;;;;;;0.10;0.10;;;19.40;99.90;;;;;;5093127;28;20175;-74
2021/08/23 11:32:29;;;;;;;0.17;0.15;;;19.40;99.90;;;;;;5092862;28;20163;-74
2021/08/23 11:34:57;;;;;;;0.00;0.00;;;19.30;99.90;;;;;;5092937;28;20253;-74
2021/08/23 11:37:26;;;;;;;0.73;0.22;;;19.30;99.90;;;;;;5110769;28;20219;-74
2021/08/23 11:40:07;;;;;;;0.10;0.10;;;19.40;99.90;;;;;;5111416;28;20589;-74
2021/08/23 11:42:33;;;;;;;0.20;0.20;;;19.20;99.90;;;;;;5111439;28;20234;-76
2021/08/23 11:45:00;;;;;;;0.25;0.25;;;19.20;99.90;;;;;;5111408;28;20155;-74
2021/08/23 11:47:32;;;;;;;0.10;0.10;;;19.30;99.90;;;;;;5111383;28;20228;-75
2021/08/23 11:49:59;;;;;;;0.10;0.10;;;19.40;99.90;;;;;;5092767;28;20226;-74
2021/08/23 11:52:25;;;;;;;0.10;0.10;;;19.60;99.90;;;;;;5111334;28;20187;-74
2021/08/23 11:54:54;;;;;;;0.22;0.22;;;19.70;99.90;;;;;;5111263;28;20180;-74
2021/08/23 11:57:22;;;;;;;1.48;0.30;;;19.60;99.90;;;;;;5110836;28;20191;-74
2021/08/23 11:59:59;;;;;;;0.10;0.10;;;19.60;99.90;;;;;;5111241;28;20163;-74
2021/08/23 12:02:28;;;;;;;6.00;0.40;;;20.00;99.90;;;;;;5111272;28;20228;-74
2021/08/23 12:05:15;;;;;;;0.17;0.17;;;20.40;99.90;;;;;;5111039;28;20171;-74
2021/08/23 12:07:42;;;;;;;0.40;0.40;;;20.20;99.90;;;;;;5090964;28;20224;-73
2021/08/23 12:10:09;;;;;;;0.43;0.43;;;20.20;99.90;;;;;;5107455;28;20229;-74
2021/08/23 12:12:35;;;;;;;0.70;0.40;;;20.00;99.90;;;;;;5110348;28;20616;-74
2021/08/23 12:15:01;;;;;;;0.40;0.40;;;19.90;99.90;;;;;;5110965;28;20169;-74
2021/08/23 12:17:32;;;;;;;0.10;0.10;;;20.10;99.90;;;;;;5090190;28;20171;-74
2021/08/23 12:20:06;;;;;;;0.20;0.20;;;20.00;99.90;;;;;;5110490;28;20171;-74
2021/08/23 12:22:32;;;;;;;0.22;0.22;;;20.00;99.90;;;;;;5110972;28;20182;-75
2021/08/23 12:25:01;;;;;;;1.20;0.73;;;20.30;99.90;;;;;;5110429;28;20159;-75
2021/08/23 12:27:27;;;;;;;1.85;0.30;;;20.50;99.90;;;;;;5110348;28;20194;-74
2021/08/23 12:29:53;;;;;;;0.10;0.10;;;20.50;99.90;;;;;;5109728;28;20210;-74
2021/08/23 12:32:19;;;;;;;0.10;0.10;;;20.70;99.90;;;;;;5110443;28;20176;-74
2021/08/23 12:34:47;;;;;;;0.05;0.05;;;20.70;99.90;;;;;;5109743;28;20278;-74
2021/08/23 12:37:15;;;;;;;0.10;0.10;;;21.20;99.90;;;;;;5110595;28;20228;-74
2021/08/23 12:39:46;;;;;;;0.25;0.25;;;21.20;99.90;;;;;;5110093;28;20151;-75
2021/08/23 12:42:13;;;;;;;0.17;0.17;;;21.30;99.90;;;;;;5110628;28;20191;-74
2021/08/23 12:44:39;;;;;;;0.10;0.10;;;21.30;99.90;;;;;;5108036;28;20178;-75
2021/08/23 12:47:06;;;;;;;0.00;0.00;;;21.20;99.90;;;;;;5107415;28;20279;-74
2021/08/23 12:49:33;;;;;;;0.00;0.00;;;21.30;99.90;;;;;;5090956;28;20234;-74